Time;durP1;ratioP1;P1;durP2;ratioP2;P2;SDS_P1;SDS_P2;PMS_P1;PMS_P2;Temp;Humidity;BMP_temperature;BMP_pressure;BME280_temperature;BME280_humidity;BME280_pressure;Samples;Min_cycle;Max_cycle;Signal;HPM_P1;HPM_P2
2022/07/28 00:01:31;;;;;;;3.05;0.90;;;26.40;72.70;;;;;;5035131;28;20036;-26
2022/07/28 00:03:57;;;;;;;1.30;1.00;;;26.40;72.80;;;;;;5035132;28;20143;-26
2022/07/28 00:06:22;;;;;;;3.55;1.15;;;26.40;72.80;;;;;;5035019;28;20033;-26
2022/07/28 00:08:48;;;;;;;2.42;1.10;;;26.40;72.80;;;;;;5034663;28;20029;-26
2022/07/28 00:11:14;;;;;;;2.47;1.10;;;26.40;72.70;;;;;;5034959;28;20026;-26
2022/07/28 00:13:39;;;;;;;4.18;1.27;;;26.40;72.80;;;;;;5035092;28;20028;-26
2022/07/28 00:16:06;;;;;;;3.28;1.00;;;26.40;72.80;;;;;;5034968;28;20056;-26
2022/07/28 00:18:32;;;;;;;1.98;0.90;;;26.40;72.80;;;;;;5034994;28;20381;-26
2022/07/28 00:20:58;;;;;;;1.83;1.23;;;26.40;72.80;;;;;;5034769;28;20018;-26
2022/07/28 00:23:24;;;;;;;2.85;1.30;;;26.40;72.90;;;;;;5034736;28;20076;-26
2022/07/28 00:25:49;;;;;;;3.83;1.13;;;26.40;72.80;;;;;;5034704;28;20105;-26
2022/07/28 00:28:15;;;;;;;3.30;1.30;;;26.30;72.70;;;;;;5034357;28;20140;-26
2022/07/28 00:30:41;;;;;;;3.22;1.10;;;26.30;72.80;;;;;;5034568;28;20110;-26
2022/07/28 00:33:06;;;;;;;3.33;1.15;;;26.30;72.80;;;;;;5034624;28;20029;-26
2022/07/28 00:35:32;;;;;;;2.85;1.00;;;26.30;72.80;;;;;;5034561;28;20035;-26
2022/07/28 00:37:58;;;;;;;7.00;1.40;;;26.30;72.80;;;;;;5034354;28;20100;-26
2022/07/28 00:41:09;;;;;;;3.28;1.00;;;26.30;72.70;;;;;;5034490;28;20104;-26
2022/07/28 00:43:10;;;;;;;3.70;1.27;;;26.30;72.80;;;;;;5034148;28;20025;-26
2022/07/28 00:45:35;;;;;;;1.20;0.82;;;26.30;72.80;;;;;;5034409;28;20030;-26
2022/07/28 00:48:01;;;;;;;2.45;0.80;;;26.30;72.80;;;;;;5033527;28;20475;-26
2022/07/28 00:50:27;;;;;;;3.55;1.00;;;26.30;72.80;;;;;;5033981;28;20048;-26
2022/07/28 00:52:53;;;;;;;3.80;1.08;;;26.30;72.80;;;;;;5034214;28;20364;-26
2022/07/28 00:55:19;;;;;;;1.90;1.05;;;26.30;72.80;;;;;;5016343;28;20034;-26
2022/07/28 00:57:45;;;;;;;2.20;1.15;;;26.30;72.80;;;;;;5034381;28;20075;-26
2022/07/28 01:00:11;;;;;;;2.58;1.10;;;26.30;72.80;;;;;;5033910;28;20441;-26
2022/07/28 01:02:36;;;;;;;1.58;0.77;;;26.30;72.80;;;;;;5034109;28;20471;-26
2022/07/28 01:05:03;;;;;;;2.80;1.00;;;26.30;72.80;;;;;;5033971;28;20101;-26
2022/07/28 01:07:48;;;;;;;2.67;1.27;;;26.30;72.80;;;;;;5016291;28;20033;-26
2022/07/28 01:10:40;;;;;;;2.10;1.00;;;26.20;72.70;;;;;;5033795;28;20080;-26
2022/07/28 01:13:22;;;;;;;2.47;1.00;;;26.30;72.80;;;;;;5010666;28;20042;-26
2022/07/28 01:16:03;;;;;;;3.17;1.00;;;26.20;72.70;;;;;;5033834;28;20483;-26
2022/07/28 01:18:46;;;;;;;3.95;0.98;;;26.20;72.80;;;;;;5033526;28;20033;-26
2022/07/28 01:21:15;;;;;;;4.93;0.98;;;26.20;72.70;;;;;;5033713;28;20167;-26
2022/07/28 01:24:08;;;;;;;1.13;0.80;;;26.20;72.80;;;;;;5033548;28;20029;-26
2022/07/28 01:26:53;;;;;;;3.78;1.10;;;26.20;72.80;;;;;;5005571;28;20402;-26
2022/07/28 01:29:30;;;;;;;3.70;1.05;;;26.20;72.80;;;;;;5033403;28;20107;-26
2022/07/28 01:32:07;;;;;;;2.35;1.08;;;26.20;72.90;;;;;;5033333;28;20029;-26
2022/07/28 01:34:39;;;;;;;1.98;1.00;;;26.10;72.80;;;;;;5033537;28;20554;-26
2022/07/28 01:37:11;;;;;;;4.40;0.90;;;26.20;72.80;;;;;;5015661;28;20025;-26
2022/07/28 01:39:40;;;;;;;1.75;0.88;;;26.20;72.80;;;;;;5015424;28;20059;-26
2022/07/28 01:42:08;;;;;;;2.22;0.95;;;26.20;72.80;;;;;;5033128;28;20021;-26
2022/07/28 01:44:39;;;;;;;3.40;1.10;;;26.10;72.80;;;;;;5033164;28;20025;-26
2022/07/28 01:47:06;;;;;;;3.05;1.05;;;26.20;72.80;;;;;;5033240;28;20375;-26
2022/07/28 01:49:34;;;;;;;2.72;1.10;;;26.10;72.80;;;;;;5033386;28;20529;-26
2022/07/28 01:52:04;;;;;;;2.58;1.05;;;26.10;72.80;;;;;;5033081;28;20498;-26
2022/07/28 01:54:31;;;;;;;1.83;0.93;;;26.10;72.80;;;;;;5033052;28;20067;-26
2022/07/28 01:56:59;;;;;;;2.25;1.00;;;26.10;72.70;;;;;;5015263;28;20452;-26
2022/07/28 01:59:27;;;;;;;3.63;1.30;;;26.10;72.70;;;;;;5032129;28;20483;-26
2022/07/28 02:01:54;;;;;;;2.63;1.00;;;26.10;72.70;;;;;;5032681;28;20028;-26
2022/07/28 02:04:22;;;;;;;2.80;0.80;;;26.10;72.70;;;;;;5032879;28;20032;-26
2022/07/28 02:06:51;;;;;;;1.88;1.08;;;26.10;72.60;;;;;;5032774;28;20101;-26
2022/07/28 02:09:20;;;;;;;3.42;0.80;;;26.10;72.60;;;;;;5032616;28;20113;-26
2022/07/28 02:11:48;;;;;;;7.60;1.35;;;26.10;72.60;;;;;;5032462;28;20097;-26
2022/07/28 02:14:17;;;;;;;2.17;1.00;;;26.10;72.60;;;;;;5032763;28;20101;-26
2022/07/28 02:16:51;;;;;;;3.38;1.05;;;26.10;72.60;;;;;;5032749;28;20026;-26
2022/07/28 02:19:18;;;;;;;;;;;26.00;72.50;;;;;;5032866;28;20022;-26
2022/07/28 02:21:46;;;;;;;2.13;0.85;;;26.00;72.50;;;;;;5032458;28;19904;-26
2022/07/28 02:24:14;;;;;;;1.52;0.85;;;26.00;72.50;;;;;;5032393;28;20505;-26
2022/07/28 02:26:45;;;;;;;1.67;0.90;;;26.00;72.50;;;;;;5032433;28;20040;-26
2022/07/28 02:29:12;;;;;;;2.42;0.95;;;26.00;72.50;;;;;;5032307;28;20502;-26
2022/07/28 02:31:50;;;;;;;4.55;1.00;;;26.00;72.50;;;;;;5032225;28;20554;-26
2022/07/28 02:34:20;;;;;;;4.13;0.90;;;26.00;72.50;;;;;;5032430;28;20075;-26
2022/07/28 02:36:53;;;;;;;2.25;0.80;;;26.00;72.50;;;;;;5032216;28;20032;-26
2022/07/28 02:39:29;;;;;;;1.67;0.70;;;26.00;72.50;;;;;;5032103;28;20498;-26
2022/07/28 02:42:04;;;;;;;2.80;1.00;;;26.00;72.40;;;;;;5032214;28;20057;-26
2022/07/28 02:44:38;;;;;;;1.48;0.90;;;26.00;72.40;;;;;;5032290;28;20108;-26
2022/07/28 02:47:07;;;;;;;1.80;0.80;;;25.90;72.30;;;;;;5031914;28;20079;-26
2022/07/28 02:49:35;;;;;;;2.38;1.00;;;26.00;72.50;;;;;;5031960;28;20454;-26
2022/07/28 02:52:03;;;;;;;2.75;0.85;;;25.90;72.40;;;;;;5032050;28;20033;-26
2022/07/28 02:54:31;;;;;;;2.08;0.90;;;25.90;72.40;;;;;;5032100;28;20071;-26
2022/07/28 02:56:58;;;;;;;3.17;1.10;;;25.90;72.40;;;;;;5032040;28;20025;-26
2022/07/28 02:59:26;;;;;;;2.92;0.93;;;25.90;72.40;;;;;;5031863;28;20029;-26
2022/07/28 03:01:52;;;;;;;3.15;1.25;;;25.90;72.40;;;;;;5014098;28;20036;-26
2022/07/28 03:07:03;;;;;;;2.15;1.00;;;25.90;72.40;;;;;;5031919;28;20087;-27
2022/07/28 03:09:30;;;;;;;3.42;1.10;;;25.90;72.40;;;;;;5031614;28;20056;-27
2022/07/28 03:11:56;;;;;;;4.05;1.00;;;25.90;72.40;;;;;;5035784;28;20029;-27
2022/07/28 03:14:22;;;;;;;2.35;0.95;;;25.80;72.30;;;;;;5038414;28;20028;-27
2022/07/28 03:16:47;;;;;;;1.25;0.82;;;25.80;72.30;;;;;;5038483;28;20104;-26
2022/07/28 03:19:13;;;;;;;2.00;1.08;;;25.90;72.30;;;;;;5038311;28;20120;-26
2022/07/28 03:21:40;;;;;;;1.83;0.88;;;25.90;72.30;;;;;;5038315;28;20061;-26
2022/07/28 03:24:09;;;;;;;1.65;1.00;;;25.80;72.20;;;;;;5038413;28;20033;-26
2022/07/28 03:26:42;;;;;;;1.77;0.98;;;25.80;72.20;;;;;;5038235;28;20494;-26
2022/07/28 03:29:09;;;;;;;2.40;0.80;;;25.80;72.20;;;;;;5038252;28;20060;-26
2022/07/28 03:31:36;;;;;;;2.45;0.80;;;25.80;72.20;;;;;;5038196;28;20454;-26
2022/07/28 03:34:03;;;;;;;3.05;1.17;;;25.80;72.20;;;;;;5038447;28;20036;-26
2022/07/28 03:36:38;;;;;;;3.78;0.73;;;25.80;72.20;;;;;;5038273;28;20032;-26
2022/07/28 03:39:08;;;;;;;2.58;0.95;;;25.80;72.20;;;;;;5037950;28;20027;-26
2022/07/28 03:41:34;;;;;;;4.78;1.10;;;25.80;72.10;;;;;;5038590;28;20025;-26
2022/07/28 03:44:01;;;;;;;2.10;0.80;;;25.80;72.10;;;;;;5038215;28;20021;-26
2022/07/28 03:46:27;;;;;;;4.35;1.02;;;25.80;72.10;;;;;;5038269;28;20052;-26
2022/07/28 03:48:53;;;;;;;4.50;0.90;;;25.80;72.10;;;;;;5038066;28;20017;-26
2022/07/28 03:51:19;;;;;;;3.10;1.33;;;25.70;72.10;;;;;;5038121;28;20037;-26
2022/07/28 03:53:45;;;;;;;6.47;3.50;;;25.70;72.10;;;;;;5037995;28;20112;-26
2022/07/28 03:56:11;;;;;;;6.55;3.17;;;25.70;72.10;;;;;;5038119;28;20083;-26
2022/07/28 03:58:37;;;;;;;5.63;2.88;;;25.70;72.00;;;;;;5037947;28;20484;-26
2022/07/28 04:01:02;;;;;;;4.15;2.22;;;25.70;72.00;;;;;;5037991;28;20037;-26
2022/07/28 04:03:29;;;;;;;4.32;2.55;;;25.70;72.10;;;;;;5038090;28;20025;-26
2022/07/28 04:05:55;;;;;;;4.97;2.05;;;25.70;72.00;;;;;;5037969;28;20029;-26
2022/07/28 04:08:21;;;;;;;3.80;2.30;;;25.70;72.00;;;;;;5037600;28;20049;-26
2022/07/28 04:10:48;;;;;;;3.30;1.80;;;25.70;72.00;;;;;;5037897;28;20461;-26
2022/07/28 04:13:13;;;;;;;3.55;1.90;;;25.70;72.00;;;;;;5037986;28;20052;-26
2022/07/28 04:15:39;;;;;;;6.25;2.00;;;25.70;72.00;;;;;;5037995;28;20061;-26
2022/07/28 04:18:06;;;;;;;4.82;1.58;;;25.60;72.00;;;;;;5037857;28;20033;-26
2022/07/28 04:20:32;;;;;;;2.72;1.50;;;25.60;71.90;;;;;;5037668;28;20539;-26
2022/07/28 04:22:58;;;;;;;4.47;1.40;;;25.60;71.90;;;;;;5035444;28;20569;-26
2022/07/28 04:25:25;;;;;;;2.60;1.50;;;25.60;71.90;;;;;;5034751;28;20030;-26
2022/07/28 04:27:52;;;;;;;2.97;1.40;;;25.60;71.90;;;;;;5034657;28;20025;-26
2022/07/28 04:30:23;;;;;;;3.35;1.80;;;25.60;72.00;;;;;;5034396;28;20025;-26
2022/07/28 04:32:50;;;;;;;3.88;1.70;;;25.60;72.00;;;;;;5034789;28;20017;-26
2022/07/28 04:35:17;;;;;;;2.67;1.35;;;25.60;72.00;;;;;;5034526;28;20030;-26
2022/07/28 04:37:42;;;;;;;3.50;1.42;;;25.50;72.00;;;;;;5034404;28;20025;-26
2022/07/28 04:40:10;;;;;;;4.53;1.40;;;25.50;71.90;;;;;;5034511;28;20029;-26
2022/07/28 04:42:38;;;;;;;2.53;1.38;;;25.50;71.90;;;;;;5034508;28;20088;-26
2022/07/28 04:45:05;;;;;;;4.18;1.38;;;25.50;71.90;;;;;;5034422;28;20159;-26
2022/07/28 04:47:31;;;;;;;3.35;1.25;;;25.50;71.90;;;;;;5034255;28;20025;-26
2022/07/28 04:49:57;;;;;;;1.90;1.10;;;25.50;71.90;;;;;;5033872;28;20391;-26
2022/07/28 04:52:24;;;;;;;3.03;1.33;;;25.50;71.90;;;;;;5034178;28;20022;-26
2022/07/28 04:54:50;;;;;;;3.33;1.17;;;25.50;71.90;;;;;;5034271;28;20029;-26
2022/07/28 04:57:15;;;;;;;3.45;1.15;;;25.50;71.90;;;;;;5034347;28;20430;-26
2022/07/28 04:59:41;;;;;;;3.25;1.33;;;25.50;72.00;;;;;;5034310;28;20029;-26
2022/07/28 05:02:07;;;;;;;2.92;1.27;;;25.50;72.00;;;;;;5034037;28;20108;-26
2022/07/28 05:04:33;;;;;;;2.72;1.30;;;25.50;72.00;;;;;;5033876;28;20036;-26
2022/07/28 05:06:59;;;;;;;3.17;1.23;;;25.50;72.00;;;;;;5033882;28;20029;-26
2022/07/28 05:09:25;;;;;;;2.25;1.10;;;25.50;72.00;;;;;;5033874;28;20442;-26
2022/07/28 05:11:51;;;;;;;1.90;0.98;;;25.50;72.00;;;;;;5033885;28;20018;-26
2022/07/28 05:14:17;;;;;;;5.47;1.00;;;25.40;72.00;;;;;;5033887;28;20124;-26
2022/07/28 05:16:43;;;;;;;1.85;1.00;;;25.50;72.00;;;;;;5033895;28;20132;-26
2022/07/28 05:19:09;;;;;;;1.92;1.00;;;25.50;72.10;;;;;;5033403;28;20021;-26
2022/07/28 05:21:35;;;;;;;1.60;0.90;;;25.50;72.10;;;;;;5033718;28;20021;-26
2022/07/28 05:24:01;;;;;;;2.13;1.13;;;25.40;72.00;;;;;;5033758;28;20581;-26
2022/07/28 05:26:27;;;;;;;2.45;1.13;;;25.50;72.10;;;;;;5033902;28;20021;-26
2022/07/28 05:28:53;;;;;;;1.55;0.90;;;25.40;72.00;;;;;;5033427;28;20026;-26
2022/07/28 05:31:19;;;;;;;2.63;1.10;;;25.50;72.10;;;;;;5033955;28;20114;-26
2022/07/28 05:33:45;;;;;;;2.15;1.20;;;25.40;72.00;;;;;;5033865;28;20142;-26
2022/07/28 05:36:11;;;;;;;1.80;1.05;;;25.40;72.10;;;;;;5034606;28;20089;-26
2022/07/28 05:38:37;;;;;;;3.78;1.15;;;25.40;72.20;;;;;;5033341;28;20498;-26
2022/07/28 05:41:03;;;;;;;1.95;1.00;;;25.40;72.20;;;;;;5033253;28;20047;-25
2022/07/28 05:43:29;;;;;;;2.42;1.10;;;25.40;72.30;;;;;;5033302;28;20120;-26
2022/07/28 05:45:54;;;;;;;2.75;1.00;;;25.40;72.30;;;;;;5033280;28;20025;-26
2022/07/28 05:48:21;;;;;;;2.03;1.00;;;25.40;72.30;;;;;;5032770;28;20052;-26
2022/07/28 05:50:48;;;;;;;2.03;1.05;;;25.40;72.40;;;;;;5033070;28;20101;-25
2022/07/28 05:53:14;;;;;;;3.58;1.05;;;25.40;72.40;;;;;;5033360;28;20018;-26
2022/07/28 05:55:39;;;;;;;1.67;0.93;;;25.40;72.40;;;;;;5033168;28;20026;-26
2022/07/28 05:58:05;;;;;;;2.80;1.10;;;25.40;72.40;;;;;;5033005;28;20048;-25
2022/07/28 06:00:32;;;;;;;3.67;1.20;;;25.40;72.40;;;;;;5032760;28;20394;-26
2022/07/28 06:03:01;;;;;;;2.03;0.90;;;25.40;72.50;;;;;;5032834;28;20032;-25
2022/07/28 06:05:27;;;;;;;4.13;1.27;;;25.40;72.50;;;;;;5032872;28;20021;-26
2022/07/28 06:07:53;;;;;;;3.97;1.30;;;25.40;72.60;;;;;;5032813;28;20071;-26
2022/07/28 06:10:20;;;;;;;3.50;1.00;;;25.40;72.60;;;;;;5032615;28;20430;-26
2022/07/28 06:12:54;;;;;;;3.38;1.33;;;25.40;72.60;;;;;;5032809;28;20021;-26
2022/07/28 06:15:21;;;;;;;5.88;1.17;;;25.30;72.60;;;;;;5032748;28;20475;-26
2022/07/28 06:17:47;;;;;;;6.80;1.17;;;25.20;72.60;;;;;;5032481;28;20060;-26
2022/07/28 06:20:13;;;;;;;7.28;1.48;;;25.00;72.70;;;;;;5032338;28;20025;-25
2022/07/28 06:22:41;;;;;;;12.60;1.50;;;24.90;73.00;;;;;;5032572;28;20530;-26
2022/07/28 06:25:17;;;;;;;5.93;1.10;;;24.80;73.50;;;;;;5032522;28;20104;-26
2022/07/28 06:27:52;;;;;;;9.75;1.50;;;24.70;73.60;;;;;;5032419;28;20026;-26
2022/07/28 06:30:19;;;;;;;5.38;1.20;;;24.60;73.80;;;;;;5032242;28;20046;-25
2022/07/28 06:32:45;;;;;;;4.57;1.35;;;24.60;74.20;;;;;;5032419;28;20033;-26
2022/07/28 06:35:15;;;;;;;5.15;1.52;;;24.50;74.20;;;;;;5032330;28;20108;-26
2022/07/28 06:37:44;;;;;;;4.97;1.30;;;24.50;74.30;;;;;;5032287;28;20095;-26
2022/07/28 06:40:11;;;;;;;5.28;1.40;;;24.70;74.20;;;;;;5032060;28;20028;-26
2022/07/28 06:42:37;;;;;;;9.02;1.55;;;24.80;74.00;;;;;;5032071;28;20061;-26
2022/07/28 06:45:04;;;;;;;4.32;1.50;;;24.80;73.80;;;;;;5032232;28;20026;-26
2022/07/28 06:47:30;;;;;;;5.53;1.30;;;24.90;73.70;;;;;;5031570;28;20430;-26
2022/07/28 06:49:55;;;;;;;6.05;1.40;;;24.90;73.50;;;;;;5031849;28;20072;-26
2022/07/28 06:52:21;;;;;;;5.07;1.30;;;25.00;73.50;;;;;;5032120;28;20080;-26
2022/07/28 06:54:50;;;;;;;4.10;1.30;;;25.00;73.40;;;;;;5032066;28;20017;-26
2022/07/28 06:57:17;;;;;;;5.30;1.10;;;25.00;73.30;;;;;;5031943;28;20055;-26
2022/07/28 06:59:42;;;;;;;5.47;1.38;;;25.10;73.30;;;;;;5031852;28;20030;-26
2022/07/28 07:02:08;;;;;;;4.10;1.15;;;25.10;73.30;;;;;;5031971;28;20160;-26
2022/07/28 07:04:34;;;;;;;2.40;1.20;;;25.10;73.30;;;;;;5031954;28;20479;-26
2022/07/28 07:06:59;;;;;;;2.83;1.00;;;25.20;73.30;;;;;;5031871;28;20120;-26
2022/07/28 07:09:25;;;;;;;6.05;1.45;;;25.20;73.30;;;;;;5031720;28;20021;-26
2022/07/28 07:11:51;;;;;;;5.65;1.33;;;25.20;73.30;;;;;;5031757;28;20032;-25
2022/07/28 07:14:16;;;;;;;5.25;1.10;;;25.20;73.30;;;;;;5031932;28;20479;-26
2022/07/28 07:16:42;;;;;;;2.75;1.30;;;25.20;73.30;;;;;;5031855;28;20494;-26
2022/07/28 07:19:08;;;;;;;2.13;1.00;;;25.20;73.30;;;;;;5031601;28;20026;-26
2022/07/28 07:21:33;;;;;;;3.22;1.20;;;25.30;73.40;;;;;;5031740;28;20033;-26
2022/07/28 07:23:59;;;;;;;4.47;1.20;;;25.30;73.40;;;;;;5031781;28;20029;-26
2022/07/28 07:26:25;;;;;;;3.80;1.40;;;25.30;74.20;;;;;;5031586;28;20026;-26
2022/07/28 07:28:50;;;;;;;4.13;1.30;;;25.30;73.40;;;;;;5031428;28;20076;-26
2022/07/28 07:31:16;;;;;;;3.53;1.30;;;25.30;73.50;;;;;;5031539;28;20083;-26
2022/07/28 07:33:42;;;;;;;2.47;1.38;;;25.40;73.60;;;;;;5031675;28;20030;-26
2022/07/28 07:36:08;;;;;;;5.22;1.10;;;25.40;73.60;;;;;;5031687;28;20031;-26
2022/07/28 07:38:33;;;;;;;3.25;1.45;;;25.40;73.70;;;;;;5031494;28;20029;-25
2022/07/28 07:40:59;;;;;;;2.55;1.20;;;25.40;73.70;;;;;;5031436;28;20037;-26
2022/07/28 07:43:26;;;;;;;4.15;1.40;;;25.40;73.70;;;;;;5031626;28;20467;-26
2022/07/28 07:45:52;;;;;;;4.55;1.30;;;25.40;73.80;;;;;;5031719;28;20032;-26
2022/07/28 07:48:17;;;;;;;4.45;1.40;;;25.40;73.80;;;;;;5031373;28;20029;-26
2022/07/28 07:50:43;;;;;;;3.92;1.23;;;25.40;73.90;;;;;;5031516;28;20386;-26
2022/07/28 07:53:09;;;;;;;4.25;1.40;;;25.50;74.00;;;;;;5031519;28;20025;-26
2022/07/28 07:55:35;;;;;;;4.28;1.48;;;25.50;74.00;;;;;;5031395;28;20048;-26
2022/07/28 07:58:01;;;;;;;4.18;1.50;;;25.50;74.10;;;;;;5031998;28;20344;-26
2022/07/28 08:00:27;;;;;;;2.72;1.50;;;25.50;74.20;;;;;;5035106;28;20026;-26
2022/07/28 08:02:52;;;;;;;3.05;1.40;;;25.50;74.20;;;;;;5035171;28;20029;-26
2022/07/28 08:05:18;;;;;;;2.78;1.20;;;25.50;74.30;;;;;;5035192;28;20471;-25
2022/07/28 08:07:44;;;;;;;3.13;1.67;;;25.50;74.40;;;;;;5035012;28;20026;-26
2022/07/28 08:10:10;;;;;;;4.88;1.58;;;25.60;74.50;;;;;;5034673;28;20029;-26
2022/07/28 08:12:35;;;;;;;3.67;1.30;;;25.60;74.60;;;;;;5017206;28;20029;-26
2022/07/28 08:15:02;;;;;;;3.75;1.60;;;25.60;74.60;;;;;;5034981;28;20104;-26
2022/07/28 08:17:28;;;;;;;5.13;1.48;;;25.60;74.70;;;;;;5034731;28;20575;-26
2022/07/28 08:19:54;;;;;;;4.15;1.42;;;25.60;74.80;;;;;;5035036;28;20061;-26
2022/07/28 08:22:20;;;;;;;3.28;1.77;;;25.60;74.90;;;;;;5017067;28;20029;-26
2022/07/28 08:24:45;;;;;;;2.72;1.50;;;25.60;74.90;;;;;;5034712;28;20078;-26
2022/07/28 08:27:11;;;;;;;3.28;1.60;;;25.60;74.90;;;;;;5034699;28;20025;-26
2022/07/28 08:29:37;;;;;;;2.28;1.70;;;25.60;75.00;;;;;;5034496;28;20383;-26
2022/07/28 08:32:03;;;;;;;4.47;1.77;;;25.70;75.20;;;;;;5016582;28;20037;-26
2022/07/28 08:34:33;;;;;;;2.90;1.60;;;25.70;75.20;;;;;;5034696;28;20518;-26
2022/07/28 08:36:59;;;;;;;3.03;1.70;;;25.70;75.20;;;;;;5034530;28;20033;-26
2022/07/28 08:39:25;;;;;;;2.38;1.23;;;25.70;75.40;;;;;;5034470;28;20040;-26
2022/07/28 08:41:57;;;;;;;4.65;1.60;;;25.70;75.40;;;;;;5034426;28;20026;-26
2022/07/28 08:44:29;;;;;;;3.17;1.55;;;25.70;75.60;;;;;;5034552;28;20030;-26
2022/07/28 08:46:57;;;;;;;3.05;1.60;;;25.70;75.60;;;;;;5034295;28;20079;-26
2022/07/28 08:49:23;;;;;;;4.82;1.73;;;25.70;75.70;;;;;;5034098;28;20028;-26
2022/07/28 08:51:52;;;;;;;3.80;1.60;;;25.70;75.70;;;;;;5034075;28;20021;-26
2022/07/28 08:54:26;;;;;;;4.80;1.90;;;25.70;75.80;;;;;;5034246;28;20049;-26
2022/07/28 08:56:53;;;;;;;4.07;1.75;;;25.80;76.00;;;;;;5034237;28;20021;-26
2022/07/28 08:59:20;;;;;;;3.42;1.75;;;25.80;76.00;;;;;;5033952;28;20030;-26
2022/07/28 09:01:46;;;;;;;2.80;1.63;;;25.70;76.00;;;;;;5034066;28;20092;-26
2022/07/28 09:04:13;;;;;;;3.03;1.95;;;25.80;76.20;;;;;;5034420;28;20022;-26
2022/07/28 09:06:40;;;;;;;4.63;2.05;;;25.80;76.20;;;;;;5034041;28;20499;-26
2022/07/28 09:09:08;;;;;;;5.03;2.08;;;25.80;76.30;;;;;;5033297;28;20558;-26
2022/07/28 09:11:35;;;;;;;3.05;1.88;;;25.70;76.30;;;;;;5034443;28;20491;-26
2022/07/28 09:14:01;;;;;;;6.32;1.90;;;25.80;76.40;;;;;;5034424;28;20086;-26
2022/07/28 09:16:26;;;;;;;4.03;1.90;;;25.80;76.50;;;;;;5033827;28;20093;-26
2022/07/28 09:18:52;;;;;;;2.15;1.70;;;25.80;76.50;;;;;;5033411;28;20021;-26
2022/07/28 09:21:18;;;;;;;5.68;1.60;;;25.80;76.60;;;;;;5015942;28;20390;-26
2022/07/28 09:23:47;;;;;;;4.50;1.77;;;25.80;76.60;;;;;;5033728;28;20025;-26
2022/07/28 09:26:13;;;;;;;3.85;2.08;;;25.90;76.80;;;;;;5033680;28;20088;-26
2022/07/28 09:28:50;;;;;;;3.53;2.00;;;25.80;76.70;;;;;;5033332;28;20109;-26
2022/07/28 09:31:17;;;;;;;7.35;2.20;;;25.80;76.80;;;;;;5033429;28;20036;-25
2022/07/28 09:34:03;;;;;;;4.68;1.73;;;25.90;77.00;;;;;;5033527;28;20060;-26
2022/07/28 09:36:40;;;;;;;4.05;1.90;;;25.90;77.10;;;;;;5015845;28;20030;-26
2022/07/28 09:39:06;;;;;;;10.18;2.97;;;25.90;77.20;;;;;;5033206;28;20029;-26
2022/07/28 09:41:53;;;;;;;14.63;2.72;;;25.80;80.70;;;;;;5033220;28;20027;-26
2022/07/28 09:44:20;;;;;;;8.40;2.63;;;25.70;80.80;;;;;;5033345;28;20021;-25
2022/07/28 09:46:46;;;;;;;10.75;3.15;;;25.80;80.70;;;;;;5033342;28;20610;-25
2022/07/28 09:49:12;;;;;;;12.35;2.95;;;25.80;80.30;;;;;;5033013;28;20487;-26
2022/07/28 09:51:38;;;;;;;10.27;2.70;;;25.80;80.10;;;;;;5033107;28;20064;-25
2022/07/28 09:54:11;;;;;;;9.68;2.85;;;25.80;79.90;;;;;;5033127;28;20052;-25
2022/07/28 09:56:38;;;;;;;9.10;2.53;;;25.90;79.80;;;;;;5033112;28;20037;-26
2022/07/28 09:59:04;;;;;;;5.13;2.70;;;25.90;79.60;;;;;;5033001;28;20037;-25
2022/07/28 10:01:30;;;;;;;7.97;2.80;;;25.90;79.40;;;;;;5032836;28;20087;-25
2022/07/28 10:03:57;;;;;;;6.70;2.58;;;25.90;79.30;;;;;;5032893;28;20045;-25
2022/07/28 10:06:32;;;;;;;3.88;2.35;;;25.90;79.20;;;;;;5032965;28;20057;-26
2022/07/28 10:09:00;;;;;;;7.28;2.60;;;26.00;79.10;;;;;;5032426;28;20090;-25
2022/07/28 10:11:27;;;;;;;7.38;2.55;;;26.00;79.00;;;;;;5032741;28;20041;-25
2022/07/28 10:14:04;;;;;;;4.20;2.42;;;26.00;78.90;;;;;;5032792;28;20096;-25
2022/07/28 10:16:30;;;;;;;5.57;2.92;;;26.00;78.80;;;;;;5033153;28;20475;-25
2022/07/28 10:18:58;;;;;;;4.75;2.47;;;26.00;78.70;;;;;;5032435;28;20031;-25
2022/07/28 10:21:25;;;;;;;7.03;2.25;;;26.10;78.70;;;;;;5014070;28;20025;-25
2022/07/28 10:23:57;;;;;;;6.40;2.55;;;26.10;78.60;;;;;;5032579;28;20039;-25
2022/07/28 10:26:42;;;;;;;3.88;1.98;;;26.10;78.60;;;;;;5032603;28;20489;-25
2022/07/28 10:29:14;;;;;;;4.72;2.03;;;26.10;78.50;;;;;;5032327;28;20033;-25
2022/07/28 10:31:56;;;;;;;6.10;2.38;;;26.10;78.50;;;;;;5032231;28;20040;-25
2022/07/28 10:34:26;;;;;;;3.22;2.03;;;26.10;78.50;;;;;;5032614;28;20026;-25
2022/07/28 10:36:54;;;;;;;4.32;2.33;;;26.10;78.50;;;;;;5032371;28;20112;-25
2022/07/28 10:39:24;;;;;;;3.33;1.95;;;26.10;78.50;;;;;;5032110;28;20029;-25
2022/07/28 10:41:49;;;;;;;3.20;2.00;;;26.10;78.50;;;;;;5032238;28;20489;-25
2022/07/28 10:44:18;;;;;;;5.75;2.53;;;26.10;78.50;;;;;;5032587;28;20100;-25
2022/07/28 10:46:44;;;;;;;7.93;2.40;;;26.10;78.50;;;;;;5032141;28;20021;-25
2022/07/28 10:49:12;;;;;;;3.75;2.20;;;26.10;78.50;;;;;;5031992;28;20053;-25
2022/07/28 10:51:48;;;;;;;3.40;2.28;;;26.10;78.50;;;;;;5032113;28;20048;-25
2022/07/28 10:54:20;;;;;;;5.88;2.45;;;26.10;78.40;;;;;;5032125;28;20018;-25
2022/07/28 10:56:56;;;;;;;3.15;2.42;;;26.10;78.40;;;;;;5032004;28;20024;-25
2022/07/28 10:59:47;;;;;;;5.25;2.00;;;26.20;78.40;;;;;;5031819;28;20467;-25
2022/07/28 11:02:56;;;;;;;5.05;2.20;;;26.20;78.40;;;;;;5032157;28;20120;-25
2022/07/28 11:05:29;;;;;;;3.50;2.10;;;26.20;78.30;;;;;;5031994;28;20033;-25
2022/07/28 11:08:00;;;;;;;7.68;2.15;;;26.20;78.20;;;;;;5031791;28;20064;-25
2022/07/28 11:10:27;;;;;;;4.50;2.10;;;26.30;78.20;;;;;;5031713;28;20475;-26
2022/07/28 11:12:55;;;;;;;4.88;2.00;;;26.30;78.20;;;;;;5031923;28;20073;-25
2022/07/28 11:15:28;;;;;;;3.25;2.20;;;26.30;78.20;;;;;;5031802;28;20087;-25
2022/07/28 11:17:59;;;;;;;3.65;2.03;;;26.30;79.00;;;;;;5031857;28;20029;-25
2022/07/28 11:20:55;;;;;;;3.55;1.90;;;26.30;78.20;;;;;;5014094;28;20405;-25
2022/07/28 11:23:56;;;;;;;4.30;2.20;;;26.30;78.30;;;;;;5031937;28;20437;-25
2022/07/28 11:26:22;;;;;;;3.30;2.05;;;26.30;78.20;;;;;;5031847;28;20025;-25
2022/07/28 11:28:59;;;;;;;4.43;2.10;;;26.30;78.20;;;;;;5031487;28;20665;-25
2022/07/28 11:31:43;;;;;;;2.72;2.00;;;26.30;78.20;;;;;;5032045;28;20088;-26
2022/07/28 11:34:10;;;;;;;3.05;2.20;;;26.30;78.30;;;;;;5035691;28;20029;-26
2022/07/28 11:37:14;;;;;;;3.63;2.00;;;26.20;78.20;;;;;;5035666;28;20033;-26
2022/07/28 11:39:40;;;;;;;3.25;1.90;;;26.20;78.30;;;;;;4974283;28;20081;-26
2022/07/28 11:42:29;;;;;;;5.35;2.22;;;26.20;78.30;;;;;;4974406;28;20494;-26
2022/07/28 11:44:56;;;;;;;6.28;2.33;;;26.30;78.30;;;;;;5012702;28;20033;-26
2022/07/28 11:47:24;;;;;;;2.25;1.73;;;26.20;78.30;;;;;;5017836;28;20474;-26
2022/07/28 11:50:09;;;;;;;3.60;2.00;;;26.30;78.30;;;;;;5035208;28;20079;-26
2022/07/28 11:52:35;;;;;;;;;;;26.30;78.30;;;;;;5018063;28;20030;-26
2022/07/28 11:55:01;;;;;;;3.05;2.00;;;26.30;78.30;;;;;;5035211;28;19931;-26
2022/07/28 11:57:27;;;;;;;3.10;2.00;;;26.20;78.30;;;;;;5035290;28;20454;-26
2022/07/28 11:59:54;;;;;;;3.17;2.10;;;26.30;78.30;;;;;;5035008;28;20049;-26
2022/07/28 12:02:26;;;;;;;3.65;2.10;;;26.30;78.30;;;;;;5035241;28;20033;-26
2022/07/28 12:04:57;;;;;;;4.80;2.08;;;26.30;78.30;;;;;;5035205;28;20501;-27
2022/07/28 12:07:31;;;;;;;4.55;2.33;;;26.30;78.40;;;;;;5034980;28;20040;-26
2022/07/28 12:09:57;;;;;;;3.83;2.00;;;26.30;78.30;;;;;;5034891;28;20028;-26
2022/07/28 12:12:22;;;;;;;3.63;1.90;;;26.30;78.30;;;;;;5035375;28;20021;-26
2022/07/28 12:14:49;;;;;;;3.13;1.85;;;26.30;78.30;;;;;;5035046;28;20395;-26
2022/07/28 12:17:14;;;;;;;5.05;2.40;;;26.30;78.30;;;;;;5034973;28;20017;-26
2022/07/28 12:19:40;;;;;;;4.07;1.65;;;26.30;78.30;;;;;;5034750;28;20167;-26
2022/07/28 12:22:10;;;;;;;2.80;1.77;;;26.30;78.30;;;;;;5034659;28;20500;-27
2022/07/28 12:24:36;;;;;;;5.28;1.98;;;26.30;78.40;;;;;;5034839;28;20022;-26
2022/07/28 12:27:03;;;;;;;2.05;1.60;;;26.30;78.30;;;;;;5034635;28;20569;-26
2022/07/28 12:29:32;;;;;;;3.85;2.00;;;26.40;78.30;;;;;;5034540;28;20021;-26
2022/07/28 12:32:04;;;;;;;3.40;1.92;;;26.40;78.20;;;;;;5034476;28;20518;-26
2022/07/28 12:34:31;;;;;;;4.47;1.77;;;26.40;78.20;;;;;;5034605;28;20045;-26
2022/07/28 12:37:00;;;;;;;3.75;1.83;;;26.40;78.20;;;;;;5034616;28;20378;-26
2022/07/28 12:39:28;;;;;;;2.53;1.85;;;26.40;78.10;;;;;;5034346;28;20032;-26
2022/07/28 12:42:02;;;;;;;3.40;2.15;;;26.40;78.10;;;;;;5034432;28;20024;-26
2022/07/28 12:44:39;;;;;;;3.65;1.98;;;26.40;78.20;;;;;;5033581;28;20364;-26
2022/07/28 12:47:07;;;;;;;7.45;2.10;;;26.40;78.20;;;;;;5034275;28;20022;-26
2022/07/28 12:49:34;;;;;;;4.03;1.90;;;26.40;78.20;;;;;;5034166;28;20048;-26
2022/07/28 12:52:21;;;;;;;3.20;2.00;;;26.40;78.10;;;;;;5034630;28;20101;-26
2022/07/28 12:54:46;;;;;;;3.58;2.00;;;26.40;78.10;;;;;;5034343;28;20030;-26
2022/07/28 12:57:12;;;;;;;4.38;2.00;;;26.40;78.10;;;;;;5034155;28;20024;-26
2022/07/28 12:59:38;;;;;;;4.18;1.98;;;26.40;78.10;;;;;;5033832;28;20025;-26